Misión y Visión

La misión es proporcionar información fiable a la navegación aérea, contribuyendo a la seguridad, regularidad y eficiencia de la Navegación Aérea Internacional

La visión es contribuir sustancialmente al desarrollo de conocimientos y a la utilización de la meteorología aeronáutica a nivel nacional e internacional, mediante la innovación y la coparticipación con sectores sociales y productivos de la sociedad.

 
  Inicio
  Metar
  Taf
  Wintemp
  SIGMET
  Avisos
  Pronósticos
  Carpeta Meteorologica
  Imágenes Satelitales
  Climatología Aeronáutica
   
  ¿Quienes Somos?
  Contacto
  Eventos



DIRECCIONES PARA INFORMES NACIONALES E INTERNACIONALES
(Metar /Speci - TAF)



http://adds.aviationweather.gov/tafs/index.php

http://www.ogimet.com/metars.phtml



PRONÓSTICOS DE AERÓDROMO

Cuando sea necesario, el encabezamiento abreviado puede incluir un cuarto grupo consistente en tres letras para identificar los boletines demorados (RRA), corregidos(CCA) o enmendados (AAA). Los boletines adicionales demorados, corregidos o enmendados deben identificarse con las letras RRB, RRC, etc.; CCB, CCC,etc.;AAB, AAC,etc.



ESTACIONES DESCRIPCION  
MPTO MPTO (M) 241700Z 27008KT 9999 SCT018TCU BKN100 32/26 Q1011 NOSIG RMK TCU N=  
MPBO (M) 241700Z 33006KT 270V030 9000 -TSRA SCT016 OVC080 ///// Q1016 RWY WET RMK TS E=  
MPCH (M) 241700Z 33006KT 6000 RA OVC020 ///// Q1017 RWY WET=  
MPSA (M) 241700Z 19004KT 9999 SCT020 SCT090 32/26 Q1014=  
MPCE (M) 241700Z 30008KT 9000 SCT020 SCT100 33/25 Q1013 RMK HZ ALQDS =  
MPPN (M)  
MPSM (M)  
MPJE (M) 231300Z 00000KT 6000 VCSH SCT010CB OVC040 Q1010 RMK PCPN S/SW  
MPPA (M) 241700Z 36010KT 9999 FEW018TCU SCT090 28/22 Q1013 RMK TCU NE=  
MPMG (M) 241700Z 30005KT 9999 FEW018TCU BKN090 30/25 Q1012 NOSIG RMK TCU NE=  
MPDA (M) 241700Z 18006KT(E) 9999 SCT018 32/26 Q1012=  
MPVR (M)  
MPWN (M)  
MPOA (M)  
MPMF (M) 231300Z 00000KT 9999 SCT017TCU OVC070 Q1010 RMK TCU NE  
MPEJ MPTO (M) 241700Z 27008KT 9999 SCT018TCU BKN100 32/26 Q1011 NOSIG RMK TCU N=  

 

 

 

CLIMATICAS

MPTO

31-03-2016

PCPN

T° MAX

T° MIN

VIENTO MAX (KT)

HORA

VIENTO PREDOM (KT)

0.0

34.8

20.0

18015KT

1700Z

VRB 05KT

CLIMATICAS

MPMG

31-03-2016

PCPN

T° MAX

T° MIN

VIENTO MAX (KT)

HORA

VIENTO PREDOM (KT)

0.0

34.0

24.2

28011KT

2000Z NNW

 

 
 























  Noticias AAC
  Directorio
  Contáctenos
  Historia
  Quejas y Sugerencias
  Etica y Transparencia

  Gestión SSP/SMS
  Seguridad Aérea
  Navegación Aérea
  Transporte Aéreo

  Tramites
  Áeronaves de Alquiler

  Meteorología
  I.S.F.P.A
  Notam
  Peligro Aviario
  AVSEC
  UPIA
  Permisos
 




DECLARACIÓN DE PRIVACIDAD